Time;durP1;ratioP1;P1;durP2;ratioP2;P2;SDS_P1;SDS_P2;PMS_P1;PMS_P2;Temp;Humidity;BMP_temperature;BMP_pressure;BME280_temperature;BME280_humidity;BME280_pressure;Samples;Min_cycle;Max_cycle;Signal;HPM_P1;HPM_P2
2023/05/12 00:01:54;;;;;;;7.40;6.53;;;13.90;99.90;;;;;;5031123;28;20029;-85
2023/05/12 00:04:19;;;;;;;6.03;5.43;;;13.80;99.90;;;;;;5031336;28;20034;-84
2023/05/12 00:06:45;;;;;;;5.93;5.43;;;13.90;99.90;;;;;;5030408;28;20607;-84
2023/05/12 00:09:10;;;;;;;5.53;5.03;;;13.80;99.90;;;;;;5031396;28;20053;-84
2023/05/12 00:11:37;;;;;;;5.78;5.15;;;13.70;99.90;;;;;;5031094;28;20537;-83
2023/05/12 00:14:02;;;;;;;7.22;4.13;;;13.80;99.90;;;;;;5033245;28;20037;-83
2023/05/12 00:16:28;;;;;;;5.50;4.43;;;13.70;99.90;;;;;;5034500;28;20082;-84
2023/05/12 00:18:54;;;;;;;5.85;5.20;;;13.80;99.90;;;;;;5030698;28;20033;-85
2023/05/12 00:21:19;;;;;;;5.22;4.70;;;13.80;99.90;;;;;;5030323;28;20096;-84
2023/05/12 00:23:45;;;;;;;6.50;5.90;;;13.90;99.90;;;;;;5030496;28;20022;-84
2023/05/12 00:26:10;;;;;;;6.65;6.05;;;13.80;99.90;;;;;;5031077;28;20070;-85
2023/05/12 00:28:36;;;;;;;8.25;6.03;;;13.80;99.90;;;;;;5029920;28;20021;-84
2023/05/12 00:31:02;;;;;;;6.95;6.30;;;13.80;99.90;;;;;;5030983;28;20112;-84
2023/05/12 00:33:29;;;;;;;5.53;5.03;;;13.80;99.90;;;;;;5031101;28;20074;-84
2023/05/12 00:35:54;;;;;;;6.22;5.63;;;13.70;99.90;;;;;;5030163;28;20017;-84
2023/05/12 00:38:20;;;;;;;5.50;5.00;;;13.70;99.90;;;;;;5030621;28;20421;-84
2023/05/12 00:40:46;;;;;;;5.18;4.68;;;13.70;99.90;;;;;;5030279;28;20030;-83
2023/05/12 00:43:11;;;;;;;6.32;5.03;;;13.60;99.90;;;;;;5029745;28;20532;-84
2023/05/12 00:45:37;;;;;;;7.70;5.03;;;13.70;99.90;;;;;;5030514;28;20466;-84
2023/05/12 00:48:04;;;;;;;6.60;5.20;;;13.70;99.90;;;;;;5030651;28;20022;-84
2023/05/12 00:50:30;;;;;;;5.30;4.70;;;13.70;99.90;;;;;;5041822;28;20029;-85
2023/05/12 00:52:56;;;;;;;5.57;5.18;;;13.70;99.90;;;;;;5034182;28;20094;-84
2023/05/12 00:55:22;;;;;;;6.68;5.45;;;14.20;99.90;;;;;;5030397;28;20056;-84
2023/05/12 00:57:48;;;;;;;4.90;4.40;;;13.60;99.90;;;;;;5029551;28;20551;-84
2023/05/12 01:00:13;;;;;;;5.75;5.10;;;13.50;99.90;;;;;;5030641;28;20036;-84
2023/05/12 01:02:39;;;;;;;5.25;4.80;;;13.40;99.90;;;;;;5030180;28;20021;-84
2023/05/12 01:05:05;;;;;;;9.90;5.95;;;13.40;99.90;;;;;;5029698;28;20538;-84
2023/05/12 01:07:31;;;;;;;6.65;5.43;;;13.30;99.90;;;;;;5030225;28;20021;-84
2023/05/12 01:09:57;;;;;;;5.60;5.03;;;13.30;99.90;;;;;;5029620;28;20037;-84
2023/05/12 01:12:24;;;;;;;6.13;5.53;;;13.20;99.90;;;;;;5030231;28;20025;-84
2023/05/12 01:14:52;;;;;;;6.20;5.60;;;13.20;99.90;;;;;;5030062;28;20030;-84
2023/05/12 01:17:27;;;;;;;5.07;4.68;;;13.20;99.90;;;;;;5029478;28;20029;-84
2023/05/12 01:19:57;;;;;;;7.32;5.70;;;13.20;99.90;;;;;;5029718;28;20026;-84
2023/05/12 01:22:25;;;;;;;6.80;5.63;;;13.70;99.90;;;;;;5030207;28;20041;-84
2023/05/12 01:25:11;;;;;;;6.57;5.13;;;13.10;99.90;;;;;;5029242;28;20304;-84
2023/05/12 01:27:39;;;;;;;5.47;4.97;;;13.10;99.90;;;;;;5028894;28;20085;-83
2023/05/12 01:30:06;;;;;;;8.10;5.63;;;13.00;99.90;;;;;;5029800;28;20078;-84
2023/05/12 01:32:32;;;;;;;5.78;5.28;;;13.00;99.90;;;;;;5029127;28;20026;-84
2023/05/12 01:34:58;;;;;;;6.22;4.85;;;13.00;99.90;;;;;;5030018;28;20047;-84
2023/05/12 01:37:27;;;;;;;5.38;4.88;;;13.00;99.90;;;;;;5029975;28;20045;-84
2023/05/12 01:39:53;;;;;;;5.85;5.22;;;13.00;99.90;;;;;;5029063;28;20034;-84
2023/05/12 01:42:19;;;;;;;6.57;5.93;;;13.00;99.90;;;;;;5029641;28;20029;-84
2023/05/12 01:44:44;;;;;;;7.13;5.68;;;12.90;99.90;;;;;;5029320;28;20041;-84
2023/05/12 01:47:12;;;;;;;9.10;5.43;;;12.90;99.90;;;;;;5028799;28;20511;-84
2023/05/12 01:49:38;;;;;;;6.07;5.43;;;12.80;99.90;;;;;;5029615;28;20033;-83
2023/05/12 01:52:03;;;;;;;5.68;5.18;;;12.90;99.90;;;;;;5028841;28;20036;-84
2023/05/12 01:54:29;;;;;;;5.20;4.80;;;12.80;99.90;;;;;;5029504;28;20033;-84
2023/05/12 01:56:55;;;;;;;5.72;5.05;;;12.70;99.90;;;;;;5029301;28;20034;-85
2023/05/12 01:59:20;;;;;;;6.47;4.80;;;12.70;99.90;;;;;;5029012;28;20040;-84
2023/05/12 02:01:46;;;;;;;9.25;5.20;;;12.80;99.90;;;;;;5029283;28;20032;-84
2023/05/12 02:04:11;;;;;;;6.20;5.60;;;12.70;99.90;;;;;;5029184;28;20065;-84
2023/05/12 02:06:37;;;;;;;6.65;5.30;;;12.80;99.90;;;;;;5028528;28;20033;-84
2023/05/12 02:09:03;;;;;;;5.72;5.18;;;12.80;99.90;;;;;;5029494;28;20430;-84
2023/05/12 02:11:29;;;;;;;6.03;4.85;;;12.70;99.90;;;;;;5029605;28;20030;-84
2023/05/12 02:13:55;;;;;;;6.95;5.10;;;12.70;99.90;;;;;;5028323;28;20385;-84
2023/05/12 02:16:21;;;;;;;5.55;4.63;;;12.70;99.90;;;;;;5029390;28;20033;-84
2023/05/12 02:18:47;;;;;;;5.20;4.70;;;12.60;99.90;;;;;;5029156;28;20026;-83
2023/05/12 02:21:12;;;;;;;4.78;4.20;;;12.60;99.90;;;;;;5028666;28;20032;-84
2023/05/12 02:23:38;;;;;;;4.82;4.32;;;12.60;99.90;;;;;;5029077;28;20029;-84
2023/05/12 02:26:03;;;;;;;6.28;4.80;;;12.60;99.90;;;;;;5028979;28;20496;-84
2023/05/12 02:28:29;;;;;;;5.22;4.43;;;12.70;99.90;;;;;;5028852;28;20022;-83
2023/05/12 02:30:55;;;;;;;4.60;4.20;;;12.60;99.90;;;;;;5028830;28;20033;-84
2023/05/12 02:33:24;;;;;;;5.30;4.20;;;12.50;99.90;;;;;;5028955;28;20021;-84
2023/05/12 02:35:49;;;;;;;6.63;5.80;;;12.60;99.90;;;;;;5028204;28;20047;-84
2023/05/12 02:38:15;;;;;;;5.95;4.28;;;12.60;99.90;;;;;;5031377;28;20022;-84
2023/05/12 02:40:41;;;;;;;6.97;5.15;;;12.50;99.90;;;;;;5032195;28;20046;-83
2023/05/12 02:43:07;;;;;;;6.68;5.93;;;12.50;99.90;;;;;;5031556;28;20408;-84
2023/05/12 02:45:32;;;;;;;8.45;6.40;;;12.50;99.90;;;;;;5032163;28;20033;-84
2023/05/12 02:47:58;;;;;;;9.63;6.68;;;12.50;99.90;;;;;;5032614;28;20442;-83
2023/05/12 02:50:23;;;;;;;7.78;6.80;;;12.40;99.90;;;;;;5031749;28;20040;-84
2023/05/12 02:52:49;;;;;;;7.40;6.70;;;12.40;99.90;;;;;;5031847;28;20065;-84
2023/05/12 02:55:15;;;;;;;8.50;7.03;;;12.50;99.90;;;;;;5031917;28;20030;-84
2023/05/12 02:57:42;;;;;;;7.20;6.50;;;12.40;99.90;;;;;;5032444;28;20108;-84
2023/05/12 03:00:08;;;;;;;6.10;5.55;;;12.40;99.90;;;;;;5032003;28;20041;-84
2023/05/12 03:02:35;;;;;;;8.77;6.95;;;12.40;99.90;;;;;;5031055;28;20018;-85
2023/05/12 03:05:01;;;;;;;8.07;6.65;;;12.40;99.90;;;;;;5031929;28;20503;-84
2023/05/12 03:07:27;;;;;;;9.00;7.05;;;12.40;99.90;;;;;;5031991;28;20461;-84
2023/05/12 03:09:53;;;;;;;8.85;7.32;;;12.30;99.90;;;;;;5031076;28;20033;-84
2023/05/12 03:12:18;;;;;;;8.23;7.43;;;12.30;99.90;;;;;;5032011;28;20104;-84
2023/05/12 03:14:44;;;;;;;10.38;7.75;;;12.30;99.90;;;;;;5031760;28;20029;-84
2023/05/12 03:17:10;;;;;;;8.55;7.72;;;12.40;99.90;;;;;;5031113;28;20018;-84
2023/05/12 03:19:35;;;;;;;9.60;7.70;;;12.40;99.90;;;;;;5031881;28;20035;-84
2023/05/12 03:22:02;;;;;;;11.57;7.65;;;12.40;99.90;;;;;;5031770;28;20113;-83
2023/05/12 03:24:28;;;;;;;9.10;8.20;;;12.30;99.90;;;;;;5031261;28;20037;-84
2023/05/12 03:26:54;;;;;;;13.77;8.73;;;12.30;99.90;;;;;;5031389;28;20025;-84
2023/05/12 03:29:19;;;;;;;9.65;8.65;;;12.30;99.90;;;;;;5031651;28;20116;-83
2023/05/12 03:31:45;;;;;;;10.02;7.93;;;12.30;99.90;;;;;;5030804;28;20044;-84
2023/05/12 03:34:11;;;;;;;8.23;7.53;;;12.30;99.90;;;;;;5031829;28;20101;-84
2023/05/12 03:36:36;;;;;;;9.95;7.50;;;12.30;99.90;;;;;;5031419;28;20022;-84
2023/05/12 03:39:02;;;;;;;8.43;7.22;;;12.30;99.90;;;;;;5030871;28;20040;-83
2023/05/12 03:41:28;;;;;;;7.68;6.75;;;12.30;99.90;;;;;;5031829;28;20029;-84
2023/05/12 03:43:53;;;;;;;8.50;7.03;;;12.30;99.90;;;;;;5030960;28;20553;-84
2023/05/12 03:46:19;;;;;;;7.45;6.78;;;12.30;99.90;;;;;;5030609;28;20037;-84
2023/05/12 03:48:45;;;;;;;7.20;6.50;;;12.30;99.90;;;;;;5030706;28;20034;-84
2023/05/12 03:51:11;;;;;;;10.02;7.25;;;12.40;99.90;;;;;;5031501;28;20030;-84
2023/05/12 03:53:41;;;;;;;6.80;6.20;;;12.40;99.90;;;;;;5030692;28;20025;-83
2023/05/12 03:56:07;;;;;;;5.80;5.28;;;12.60;99.90;;;;;;5031395;28;20032;-83
2023/05/12 03:58:32;;;;;;;5.00;4.60;;;12.60;99.90;;;;;;5030529;28;20049;-84
2023/05/12 04:01:00;;;;;;;5.10;4.70;;;12.60;99.90;;;;;;5030938;28;20079;-83
2023/05/12 04:03:26;;;;;;;4.57;4.28;;;12.60;99.90;;;;;;5031341;28;20178;-83
2023/05/12 04:05:58;;;;;;;5.20;4.32;;;12.60;99.90;;;;;;5029975;28;20037;-84
2023/05/12 04:08:23;;;;;;;4.57;4.05;;;12.60;99.90;;;;;;5031159;28;20056;-84
2023/05/12 04:10:48;;;;;;;6.30;3.60;;;12.70;99.90;;;;;;5030855;28;20057;-84
2023/05/12 04:13:14;;;;;;;4.25;3.95;;;12.80;99.90;;;;;;5030387;28;20060;-84
2023/05/12 04:15:40;;;;;;;3.90;3.60;;;12.80;99.90;;;;;;5030620;28;20097;-85
2023/05/12 04:18:05;;;;;;;4.38;4.07;;;12.80;99.90;;;;;;5031135;28;20518;-84
2023/05/12 04:20:31;;;;;;;4.85;3.67;;;12.80;99.90;;;;;;5030255;28;20017;-84
2023/05/12 04:22:56;;;;;;;5.05;3.67;;;12.80;99.90;;;;;;5030890;28;20030;-84
2023/05/12 04:25:22;;;;;;;4.18;3.78;;;12.80;99.90;;;;;;5030720;28;20045;-84
2023/05/12 04:27:47;;;;;;;4.68;4.35;;;12.90;99.90;;;;;;5029797;28;20021;-84
2023/05/12 04:30:13;;;;;;;5.78;4.03;;;12.80;99.90;;;;;;5030588;28;20492;-84
2023/05/12 04:32:39;;;;;;;5.38;4.68;;;12.80;99.90;;;;;;5030302;28;20026;-84
2023/05/12 04:35:04;;;;;;;6.55;5.95;;;12.90;99.90;;;;;;5029892;28;20029;-84
2023/05/12 04:37:30;;;;;;;6.50;5.90;;;12.90;99.90;;;;;;5030621;28;20129;-84
2023/05/12 04:39:55;;;;;;;7.13;5.90;;;12.90;99.90;;;;;;5030182;28;20037;-84
2023/05/12 04:42:21;;;;;;;9.57;6.72;;;12.90;99.90;;;;;;5029650;28;20189;-84
2023/05/12 04:44:46;;;;;;;8.18;7.05;;;12.90;99.90;;;;;;5030061;28;20036;-84
2023/05/12 04:47:12;;;;;;;8.65;7.68;;;12.90;99.90;;;;;;5030525;28;20018;-84
2023/05/12 04:49:38;;;;;;;10.90;8.75;;;13.00;99.90;;;;;;5029602;28;20037;-85
2023/05/12 04:52:07;;;;;;;12.07;10.35;;;13.00;99.90;;;;;;5030732;28;20013;-84
2023/05/12 04:54:32;;;;;;;15.20;11.43;;;13.00;99.90;;;;;;5030202;28;20025;-84
2023/05/12 04:56:58;;;;;;;19.80;12.70;;;13.10;99.90;;;;;;5029892;28;20025;-84
2023/05/12 04:59:23;;;;;;;19.30;13.88;;;13.10;99.90;;;;;;5030210;28;20112;-83
2023/05/12 05:01:49;;;;;;;17.63;13.50;;;13.10;99.90;;;;;;5028965;28;20060;-84
2023/05/12 05:04:15;;;;;;;19.02;13.75;;;13.20;99.90;;;;;;5030015;28;20029;-84
2023/05/12 05:06:40;;;;;;;17.88;13.23;;;13.30;99.90;;;;;;5029735;28;20033;-84
2023/05/12 05:09:06;;;;;;;18.55;13.85;;;13.30;99.90;;;;;;5029364;28;20029;-84
2023/05/12 05:11:32;;;;;;;18.67;14.25;;;13.30;99.90;;;;;;5030002;28;20071;-84
2023/05/12 05:13:57;;;;;;;18.45;14.15;;;13.30;99.90;;;;;;5032310;28;20480;-84
2023/05/12 05:16:23;;;;;;;18.08;14.23;;;13.60;99.90;;;;;;5029469;28;20021;-84
2023/05/12 05:18:48;;;;;;;21.50;15.85;;;13.40;99.90;;;;;;5029876;28;20483;-84
2023/05/12 05:21:14;;;;;;;22.58;15.70;;;13.40;99.90;;;;;;5029937;28;20626;-83
2023/05/12 05:23:41;;;;;;;20.63;16.05;;;13.40;99.90;;;;;;5028915;28;20029;-85
2023/05/12 05:26:07;;;;;;;21.95;16.50;;;13.40;99.90;;;;;;5029746;28;20388;-84
2023/05/12 05:28:34;;;;;;;21.42;16.73;;;13.80;99.90;;;;;;5029413;28;20022;-84
2023/05/12 05:30:59;;;;;;;23.42;16.75;;;13.40;99.90;;;;;;5029382;28;20026;-84
2023/05/12 05:33:25;;;;;;;21.17;15.70;;;13.50;99.90;;;;;;5029927;28;20032;-84
2023/05/12 05:35:51;;;;;;;22.77;17.05;;;13.40;99.90;;;;;;5029190;28;20108;-84
2023/05/12 05:38:16;;;;;;;23.00;16.30;;;13.40;99.90;;;;;;5029351;28;20025;-84
2023/05/12 05:40:42;;;;;;;20.88;16.88;;;13.50;99.90;;;;;;5029389;28;20057;-84
2023/05/12 05:43:07;;;;;;;27.23;17.30;;;13.50;99.90;;;;;;5029418;28;20049;-84
2023/05/12 05:45:33;;;;;;;24.25;17.13;;;13.60;99.90;;;;;;5028594;28;20046;-85
2023/05/12 05:47:59;;;;;;;23.55;17.17;;;13.50;99.90;;;;;;5029766;28;20044;-84
2023/05/12 05:50:24;;;;;;;22.38;16.73;;;13.60;99.90;;;;;;5029781;28;20048;-84
2023/05/12 05:52:50;;;;;;;25.08;17.58;;;13.50;99.90;;;;;;5028825;28;20040;-84
2023/05/12 05:55:15;;;;;;;26.52;17.20;;;13.50;99.90;;;;;;5029700;28;20521;-84
2023/05/12 05:57:41;;;;;;;22.60;17.13;;;13.50;99.90;;;;;;5028967;28;20057;-84
2023/05/12 06:00:08;;;;;;;25.20;18.23;;;13.50;99.90;;;;;;5029148;28;20053;-84
2023/05/12 06:02:34;;;;;;;26.20;18.65;;;13.60;99.90;;;;;;5029232;28;20033;-84
2023/05/12 06:05:00;;;;;;;26.40;18.35;;;13.60;99.90;;;;;;5029551;28;20038;-84
2023/05/12 06:07:26;;;;;;;26.15;19.65;;;13.60;99.90;;;;;;5028852;28;20070;-84
2023/05/12 06:09:54;;;;;;;29.95;20.02;;;13.60;99.90;;;;;;5029298;28;20044;-84
2023/05/12 06:12:20;;;;;;;25.73;19.00;;;13.60;99.90;;;;;;5029610;28;20026;-84
2023/05/12 06:14:46;;;;;;;30.15;20.73;;;13.70;99.90;;;;;;5032658;28;20029;-84
2023/05/12 06:17:11;;;;;;;27.10;19.95;;;13.70;99.90;;;;;;5032636;28;20021;-84
2023/05/12 06:19:37;;;;;;;29.38;20.35;;;13.70;99.90;;;;;;5031744;28;20027;-84
2023/05/12 06:22:03;;;;;;;31.73;20.88;;;13.70;99.90;;;;;;5032956;28;20131;-84
2023/05/12 06:24:28;;;;;;;31.50;20.98;;;13.70;99.90;;;;;;5032902;28;20022;-84
2023/05/12 06:26:55;;;;;;;33.20;22.15;;;13.70;99.90;;;;;;5032894;28;20021;-84
2023/05/12 06:29:21;;;;;;;29.70;21.27;;;13.70;99.90;;;;;;5034120;28;20032;-83
2023/05/12 06:31:46;;;;;;;32.53;22.52;;;13.70;99.90;;;;;;5032456;28;20022;-83
2023/05/12 06:34:12;;;;;;;31.45;21.08;;;13.70;99.90;;;;;;5031824;28;20031;-84
2023/05/12 06:36:38;;;;;;;33.33;21.42;;;13.70;99.90;;;;;;5032364;28;20052;-83
2023/05/12 06:39:04;;;;;;;31.92;21.80;;;13.80;99.90;;;;;;5032400;28;20488;-83
2023/05/12 06:41:30;;;;;;;38.72;22.70;;;13.60;99.90;;;;;;5031648;28;20381;-83
2023/05/12 06:43:56;;;;;;;34.35;22.40;;;13.70;99.90;;;;;;5031751;28;20136;-84
2023/05/12 06:46:22;;;;;;;34.97;22.65;;;13.80;99.90;;;;;;5032588;28;20121;-84
2023/05/12 06:48:47;;;;;;;36.42;22.92;;;13.90;99.90;;;;;;5031554;28;20045;-84
2023/05/12 06:51:13;;;;;;;35.85;22.15;;;13.80;99.90;;;;;;5032535;28;20022;-83
2023/05/12 06:53:41;;;;;;;36.55;22.08;;;13.80;99.90;;;;;;5032028;28;20063;-84
2023/05/12 06:56:07;;;;;;;30.45;21.55;;;13.80;99.90;;;;;;5031837;28;20045;-83
2023/05/12 06:58:33;;;;;;;35.67;22.92;;;13.90;99.90;;;;;;5032032;28;20397;-84
2023/05/12 07:00:58;;;;;;;32.63;21.83;;;13.90;99.90;;;;;;5032432;28;20025;-84
2023/05/12 07:03:24;;;;;;;35.05;21.63;;;13.90;99.90;;;;;;5031380;28;20022;-84
2023/05/12 07:05:50;;;;;;;30.52;21.73;;;13.90;99.90;;;;;;5031665;28;20110;-84
2023/05/12 07:08:16;;;;;;;32.50;22.90;;;14.00;99.90;;;;;;5032242;28;20030;-84
2023/05/12 07:10:41;;;;;;;32.80;22.75;;;14.00;99.90;;;;;;5030835;28;20417;-84
2023/05/12 07:13:07;;;;;;;33.92;22.75;;;14.00;99.90;;;;;;5032339;28;20097;-83
2023/05/12 07:15:33;;;;;;;27.80;21.25;;;14.00;99.90;;;;;;5031415;28;20373;-84
2023/05/12 07:17:58;;;;;;;30.58;21.42;;;14.40;99.90;;;;;;5039461;28;20079;-83
2023/05/12 07:20:24;;;;;;;35.80;23.60;;;14.10;99.90;;;;;;5031837;28;20145;-84
2023/05/12 07:22:51;;;;;;;31.83;22.17;;;14.80;99.90;;;;;;5030899;28;20030;-84
2023/05/12 07:25:17;;;;;;;35.55;21.98;;;14.20;99.90;;;;;;5030820;28;20041;-83
2023/05/12 07:27:43;;;;;;;27.95;20.65;;;14.20;99.90;;;;;;5031362;28;20028;-84
2023/05/12 07:30:09;;;;;;;30.92;21.27;;;14.20;99.90;;;;;;5031097;28;20029;-83
2023/05/12 07:32:35;;;;;;;30.02;22.02;;;14.20;99.90;;;;;;5031622;28;20022;-84
2023/05/12 07:35:00;;;;;;;30.48;21.27;;;14.30;99.90;;;;;;5031956;28;20037;-84
2023/05/12 07:37:26;;;;;;;31.30;21.38;;;14.30;99.90;;;;;;5030899;28;20022;-84
2023/05/12 07:39:52;;;;;;;32.83;21.10;;;14.50;99.90;;;;;;5031328;28;20097;-83
2023/05/12 07:42:17;;;;;;;34.67;21.23;;;14.30;99.90;;;;;;5031430;28;20018;-84
2023/05/12 07:44:43;;;;;;;29.70;20.77;;;14.30;99.90;;;;;;5030578;28;20029;-84
2023/05/12 07:47:09;;;;;;;28.27;21.38;;;14.40;99.90;;;;;;5031749;28;20026;-84
2023/05/12 07:49:34;;;;;;;31.08;23.00;;;14.40;99.90;;;;;;5031208;28;20021;-84
2023/05/12 07:52:00;;;;;;;33.35;20.88;;;14.40;99.90;;;;;;5030711;28;20032;-83
2023/05/12 07:54:26;;;;;;;35.75;22.60;;;14.40;99.90;;;;;;5031223;28;20063;-84
2023/05/12 07:56:51;;;;;;;31.30;21.80;;;14.50;99.90;;;;;;5031213;28;20097;-84
2023/05/12 07:59:17;;;;;;;31.45;20.92;;;14.50;99.90;;;;;;5030782;28;20166;-85
2023/05/12 08:01:42;;;;;;;31.55;21.55;;;14.50;99.90;;;;;;5030923;28;20477;-84
2023/05/12 08:04:08;;;;;;;35.38;20.92;;;14.50;99.90;;;;;;5031141;28;20022;-84
2023/05/12 08:06:34;;;;;;;33.85;22.17;;;14.60;99.90;;;;;;5029915;28;20026;-84
2023/05/12 08:08:59;;;;;;;30.08;19.20;;;14.60;99.90;;;;;;5031248;28;20030;-84
2023/05/12 08:11:25;;;;;;;30.02;19.02;;;14.60;99.90;;;;;;5031152;28;20365;-83
2023/05/12 08:13:51;;;;;;;29.58;20.13;;;14.90;99.90;;;;;;5029935;28;20380;-84
2023/05/12 08:16:17;;;;;;;24.60;19.58;;;14.70;99.90;;;;;;5031307;28;20025;-84
2023/05/12 08:18:43;;;;;;;26.70;18.30;;;14.70;99.90;;;;;;5030623;28;20094;-84
2023/05/12 08:21:09;;;;;;;25.98;19.42;;;14.70;99.90;;;;;;5030282;28;20024;-84
2023/05/12 08:23:36;;;;;;;27.70;20.13;;;14.80;99.90;;;;;;5030704;28;20048;-84
2023/05/12 08:26:02;;;;;;;26.73;19.83;;;14.80;99.90;;;;;;5029964;28;20492;-84
2023/05/12 08:28:28;;;;;;;23.42;18.42;;;14.90;99.90;;;;;;5030868;28;20029;-84
2023/05/12 08:30:53;;;;;;;22.83;18.52;;;14.80;99.90;;;;;;5030449;28;20362;-84
2023/05/12 08:33:19;;;;;;;27.98;19.92;;;14.90;99.90;;;;;;5030249;28;20569;-84
2023/05/12 08:35:45;;;;;;;23.10;18.05;;;14.90;99.90;;;;;;5032903;28;20030;-84
2023/05/12 08:38:10;;;;;;;24.17;17.92;;;14.90;99.90;;;;;;5034669;28;20108;-84
2023/05/12 08:41:06;;;;;;;22.38;18.23;;;14.90;99.90;;;;;;5029591;28;20029;-83
2023/05/12 08:43:41;;;;;;;23.10;17.75;;;15.00;99.90;;;;;;5030358;28;20045;-83
2023/05/12 08:46:08;;;;;;;22.38;17.73;;;15.00;99.90;;;;;;5030554;28;20614;-84
2023/05/12 08:48:35;;;;;;;26.58;19.02;;;15.10;99.90;;;;;;5029815;28;20028;-84
2023/05/12 08:51:02;;;;;;;23.42;18.20;;;15.10;99.90;;;;;;5030520;28;20026;-84
2023/05/12 08:53:28;;;;;;;20.90;18.33;;;15.10;99.90;;;;;;5030754;28;20086;-84
2023/05/12 08:55:56;;;;;;;19.95;17.15;;;15.20;99.90;;;;;;5029837;28;20068;-84
2023/05/12 08:58:23;;;;;;;21.92;18.00;;;15.20;99.90;;;;;;5030832;28;20078;-83
2023/05/12 09:00:50;;;;;;;24.85;17.25;;;15.20;99.90;;;;;;5030353;28;20028;-84
2023/05/12 09:03:18;;;;;;;19.67;16.85;;;15.20;99.90;;;;;;5030407;28;20047;-84
2023/05/12 09:05:45;;;;;;;18.33;15.68;;;15.30;99.90;;;;;;5029844;28;20062;-84
2023/05/12 09:08:11;;;;;;;18.95;15.52;;;15.30;99.90;;;;;;5029613;28;20063;-83
2023/05/12 09:10:38;;;;;;;20.52;16.42;;;15.40;99.90;;;;;;5030052;28;20516;-84
2023/05/12 09:13:46;;;;;;;16.83;15.13;;;15.50;99.90;;;;;;5030407;28;20026;-83
2023/05/12 09:16:13;;;;;;;20.98;15.27;;;15.50;99.90;;;;;;5029846;28;20050;-84
2023/05/12 09:18:51;;;;;;;15.45;13.68;;;15.50;99.90;;;;;;5030374;28;20070;-84
2023/05/12 09:21:17;;;;;;;15.88;13.25;;;15.60;99.90;;;;;;5031500;28;20025;-83
2023/05/12 09:23:56;;;;;;;14.40;12.98;;;15.60;99.90;;;;;;5031402;28;20465;-84
2023/05/12 09:26:23;;;;;;;14.35;12.90;;;15.60;99.90;;;;;;5030402;28;20041;-83
2023/05/12 09:28:50;;;;;;;11.75;10.75;;;15.70;99.90;;;;;;5029909;28;20029;-84
2023/05/12 09:31:21;;;;;;;11.63;10.63;;;15.70;99.90;;;;;;5029168;28;20034;-84
2023/05/12 09:33:47;;;;;;;11.80;10.55;;;15.70;99.90;;;;;;5029908;28;20078;-84
2023/05/12 09:36:17;;;;;;;12.18;10.52;;;15.80;99.90;;;;;;5029150;28;20022;-84
2023/05/12 09:38:42;;;;;;;11.40;10.30;;;15.80;99.90;;;;;;5029410;28;20480;-83
2023/05/12 09:41:08;;;;;;;10.73;9.73;;;15.80;99.90;;;;;;5030055;28;20057;-83
2023/05/12 09:43:34;;;;;;;19.50;10.88;;;15.80;99.90;;;;;;5028837;28;20049;-84
2023/05/12 09:46:06;;;;;;;11.52;10.40;;;15.90;99.90;;;;;;5029629;28;20037;-84
2023/05/12 09:48:32;;;;;;;12.65;9.75;;;16.00;99.90;;;;;;5029124;28;20025;-84
2023/05/12 09:50:58;;;;;;;9.95;8.95;;;15.90;99.90;;;;;;5029106;28;20039;-84
2023/05/12 09:53:23;;;;;;;10.82;8.98;;;16.00;99.90;;;;;;5029690;28;20104;-84
2023/05/12 09:55:49;;;;;;;11.23;8.77;;;16.00;99.90;;;;;;5029891;28;20033;-84
2023/05/12 09:58:17;;;;;;;9.75;8.75;;;16.20;99.90;;;;;;5028992;28;20029;-83
2023/05/12 10:00:43;;;;;;;9.63;8.55;;;16.20;99.90;;;;;;5028930;28;20025;-84
2023/05/12 10:03:11;;;;;;;8.15;7.53;;;16.20;99.90;;;;;;5029508;28;20022;-84
2023/05/12 10:05:46;;;;;;;7.20;6.60;;;16.40;99.90;;;;;;5028345;28;20038;-84
2023/05/12 10:08:28;;;;;;;6.68;4.97;;;16.30;99.90;;;;;;5029559;28;20033;-84
2023/05/12 10:10:57;;;;;;;5.93;5.32;;;16.40;99.90;;;;;;5028877;28;20520;-84
2023/05/12 10:13:23;;;;;;;6.20;5.32;;;16.50;99.90;;;;;;5028467;28;20154;-84
2023/05/12 10:15:53;;;;;;;5.97;5.57;;;16.60;99.90;;;;;;5028645;28;20120;-84
2023/05/12 10:18:19;;;;;;;7.55;5.45;;;16.60;99.90;;;;;;5028817;28;20346;-84
2023/05/12 10:20:46;;;;;;;5.75;5.30;;;16.80;99.90;;;;;;5028416;28;20030;-84
2023/05/12 10:23:12;;;;;;;8.32;4.63;;;16.80;99.90;;;;;;5029341;28;20384;-84
2023/05/12 10:25:40;;;;;;;4.93;4.53;;;16.90;99.90;;;;;;5028208;28;20042;-84
2023/05/12 10:28:05;;;;;;;4.88;4.47;;;17.00;99.90;;;;;;5029058;28;20022;-84
2023/05/12 10:30:32;;;;;;;5.75;4.30;;;17.10;99.90;;;;;;5028954;28;20029;-84
2023/05/12 10:32:58;;;;;;;5.20;4.80;;;17.20;99.90;;;;;;5028441;28;20025;-84
2023/05/12 10:35:32;;;;;;;5.22;4.82;;;17.20;99.90;;;;;;5028948;28;20032;-84
2023/05/12 10:38:10;;;;;;;7.70;6.47;;;17.10;99.90;;;;;;5029058;28;20036;-84
2023/05/12 10:40:59;;;;;;;6.60;6.10;;;17.00;99.90;;;;;;5028120;28;20026;-84
2023/05/12 10:43:27;;;;;;;6.43;5.93;;;17.00;99.90;;;;;;5023735;28;20059;-84
2023/05/12 10:46:11;;;;;;;7.60;6.90;;;17.20;99.90;;;;;;5036348;28;20033;-85
2023/05/12 10:48:53;;;;;;;6.70;6.03;;;17.30;99.90;;;;;;5027981;28;20025;-85
2023/05/12 10:51:21;;;;;;;6.85;4.82;;;17.40;99.90;;;;;;5029182;28;20034;-85
2023/05/12 10:53:50;;;;;;;9.55;5.78;;;17.60;99.90;;;;;;5028091;28;20100;-85
2023/05/12 10:56:41;;;;;;;4.63;4.22;;;17.70;99.90;;;;;;5029199;28;20030;-84
2023/05/12 10:59:21;;;;;;;14.75;4.25;;;17.80;99.90;;;;;;5030638;28;20045;-85
2023/05/12 11:02:03;;;;;;;7.47;4.38;;;17.90;99.90;;;;;;5031218;28;20101;-84
2023/05/12 11:04:40;;;;;;;4.85;4.40;;;17.90;99.90;;;;;;5032284;28;20033;-84
2023/05/12 11:07:08;;;;;;;5.65;5.00;;;18.00;99.90;;;;;;5032196;28;20029;-85
2023/05/12 11:09:44;;;;;;;7.47;4.25;;;18.00;99.90;;;;;;5031084;28;20492;-85
2023/05/12 11:12:10;;;;;;;4.50;4.20;;;18.00;99.90;;;;;;5031919;28;20025;-85
2023/05/12 11:14:38;;;;;;;7.57;4.75;;;18.10;99.90;;;;;;5031758;28;20141;-85
2023/05/12 11:17:04;;;;;;;5.60;4.75;;;18.00;99.90;;;;;;5032096;28;20069;-85
2023/05/12 11:19:31;;;;;;;6.43;4.45;;;18.10;99.90;;;;;;5032328;28;20060;-85
2023/05/12 11:21:57;;;;;;;4.50;4.10;;;18.00;99.90;;;;;;5031397;28;20037;-86
2023/05/12 11:24:23;;;;;;;3.72;3.42;;;18.00;99.90;;;;;;5031969;28;20030;-85
2023/05/12 11:26:50;;;;;;;3.25;3.03;;;18.00;99.90;;;;;;5031919;28;20112;-85
2023/05/12 11:29:17;;;;;;;4.03;3.63;;;17.90;99.90;;;;;;5031358;28;20029;-85
2023/05/12 11:31:47;;;;;;;4.22;3.33;;;18.00;99.90;;;;;;5031746;28;20025;-86
2023/05/12 11:34:13;;;;;;;5.17;2.97;;;18.00;99.90;;;;;;5031903;28;20048;-85
2023/05/12 11:36:43;;;;;;;3.22;2.90;;;17.90;99.90;;;;;;5030730;28;20061;-85
2023/05/12 11:39:23;;;;;;;4.00;3.10;;;17.90;99.90;;;;;;5031887;28;20029;-85
2023/05/12 11:41:49;;;;;;;3.30;3.03;;;17.90;99.90;;;;;;5032273;28;20030;-85
2023/05/12 11:44:23;;;;;;;8.23;3.10;;;18.00;99.90;;;;;;5030466;28;20042;-84
2023/05/12 11:47:10;;;;;;;3.38;2.90;;;17.90;99.90;;;;;;5031156;28;20037;-85
2023/05/12 11:49:46;;;;;;;7.82;3.30;;;17.90;99.90;;;;;;5030876;28;20053;-85
2023/05/12 11:52:12;;;;;;;4.75;2.72;;;18.00;99.90;;;;;;5031379;28;20029;-85
2023/05/12 11:54:38;;;;;;;3.47;2.65;;;18.20;99.90;;;;;;5032475;28;20048;-85
2023/05/12 11:57:04;;;;;;;4.05;3.40;;;18.10;99.90;;;;;;5030714;28;20029;-85
2023/05/12 11:59:32;;;;;;;2.97;2.55;;;18.00;99.90;;;;;;5031235;28;20384;-85
2023/05/12 12:02:02;;;;;;;4.93;2.60;;;18.00;99.90;;;;;;5031262;28;20029;-85
2023/05/12 12:04:41;;;;;;;2.72;2.53;;;18.10;99.90;;;;;;5030724;28;20062;-86
2023/05/12 12:07:08;;;;;;;5.30;2.70;;;18.30;99.90;;;;;;5038529;28;20089;-85
2023/05/12 12:09:42;;;;;;;2.85;2.65;;;18.40;99.90;;;;;;5031286;28;20029;-84
2023/05/12 12:12:10;;;;;;;3.50;2.67;;;18.50;99.90;;;;;;5030687;28;20055;-86
2023/05/12 12:14:40;;;;;;;2.70;2.50;;;18.70;99.90;;;;;;5030944;28;20030;-84
2023/05/12 12:17:06;;;;;;;4.63;2.58;;;18.70;99.90;;;;;;5031333;28;20032;-84
2023/05/12 12:19:31;;;;;;;4.00;2.22;;;18.80;99.90;;;;;;5030461;28;20026;-85
2023/05/12 12:21:57;;;;;;;5.13;2.17;;;18.70;99.90;;;;;;5031132;28;20048;-84
2023/05/12 12:24:24;;;;;;;3.10;2.60;;;18.80;99.90;;;;;;5030786;28;20063;-84
2023/05/12 12:26:49;;;;;;;6.70;2.53;;;18.80;99.90;;;;;;5029966;28;20030;-84
2023/05/12 12:29:15;;;;;;;3.22;2.67;;;19.10;99.90;;;;;;5030820;28;20021;-84
2023/05/12 12:31:41;;;;;;;5.15;2.70;;;19.00;99.90;;;;;;5030733;28;20021;-85
2023/05/12 12:34:06;;;;;;;7.95;2.50;;;18.80;99.90;;;;;;5030383;28;20104;-85
2023/05/12 12:36:32;;;;;;;2.85;2.55;;;18.60;99.90;;;;;;5030536;28;20519;-84
2023/05/12 12:38:58;;;;;;;2.70;2.50;;;18.80;99.90;;;;;;5030943;28;20082;-85